createdAt,value
2022-08-04T00:00:45.829Z,15.07
2022-08-04T00:03:36.415Z,13.20
2022-08-04T00:06:14.362Z,11.82
2022-08-04T00:08:53.798Z,11.82
2022-08-04T00:11:26.148Z,10.38
2022-08-04T00:14:14.767Z,11.18
2022-08-04T00:16:42.868Z,10.88
2022-08-04T00:19:29.947Z,12.80
2022-08-04T00:22:02.777Z,14.35
2022-08-04T00:24:35.430Z,10.45
2022-08-04T00:27:06.965Z,12.95
2022-08-04T00:29:39.805Z,13.13
2022-08-04T00:32:10.024Z,13.07
2022-08-04T00:34:37.847Z,10.77
2022-08-04T00:37:08.857Z,11.00
2022-08-04T00:39:36.839Z,10.82
2022-08-04T00:42:18.959Z,14.35
2022-08-04T00:44:48.735Z,10.77
2022-08-04T00:47:44.735Z,15.32
2022-08-04T00:50:31.393Z,12.60
2022-08-04T00:53:50.181Z,15.30
2022-08-04T00:56:37.540Z,12.02
2022-08-04T00:59:18.869Z,13.63
2022-08-04T01:02:07.846Z,12.10
2022-08-04T01:04:37.300Z,12.32
2022-08-04T01:07:15.203Z,9.95
2022-08-04T01:09:53.969Z,10.77
2022-08-04T01:16:00.431Z,11.18
2022-08-04T01:18:34.037Z,11.63
2022-08-04T01:21:19.540Z,10.48
2022-08-04T01:24:13.703Z,11.05
2022-08-04T01:26:59.416Z,11.00
2022-08-04T01:29:46.669Z,10.52
2022-08-04T01:32:38.852Z,11.40
2022-08-04T01:35:21.792Z,11.75
2022-08-04T01:38:22.218Z,10.52
2022-08-04T01:40:53.901Z,10.45
2022-08-04T01:43:21.762Z,12.45
2022-08-04T01:45:51.708Z,11.43
2022-08-04T01:48:26.065Z,12.02
2022-08-04T01:51:00.226Z,9.98
2022-08-04T01:53:32.382Z,14.95
2022-08-04T01:56:01.346Z,10.55
2022-08-04T01:58:33.233Z,10.80
2022-08-04T02:01:08.719Z,10.95
2022-08-04T02:04:21.128Z,9.63
2022-08-04T02:06:49.518Z,9.50
2022-08-04T02:09:55.106Z,10.23
2022-08-04T02:12:47.934Z,11.65
2022-08-04T02:15:30.088Z,12.88
2022-08-04T02:18:15.095Z,11.07
2022-08-04T02:20:48.260Z,10.27
2022-08-04T02:23:22.091Z,12.77
2022-08-04T02:26:09.013Z,9.75
2022-08-04T02:29:16.935Z,10.32
2022-08-04T02:31:52.727Z,10.40
2022-08-04T02:34:42.073Z,9.88
2022-08-04T02:37:09.834Z,11.45
2022-08-04T02:44:28.623Z,12.93
2022-08-04T02:46:55.954Z,11.07
2022-08-04T02:49:24.225Z,13.80
2022-08-04T02:51:54.139Z,11.05
2022-08-04T02:54:42.920Z,10.50
2022-08-04T02:57:13.025Z,9.68
2022-08-04T03:00:11.795Z,11.57
2022-08-04T03:02:44.671Z,12.77
2022-08-04T03:05:21.576Z,11.98
2022-08-04T03:08:01.010Z,10.80
2022-08-04T03:10:48.522Z,13.15
2022-08-04T03:13:58.157Z,12.10
2022-08-04T03:16:57.300Z,12.38
2022-08-04T03:20:00.494Z,14.57
2022-08-04T03:23:11.539Z,11.52
2022-08-04T03:26:44.452Z,14.07
2022-08-04T03:29:37.145Z,15.85
2022-08-04T03:32:41.767Z,11.82
2022-08-04T03:35:29.218Z,11.27
2022-08-04T03:38:25.441Z,16.38
2022-08-04T03:41:56.088Z,12.13
2022-08-04T03:44:18.369Z,10.85
2022-08-04T03:46:53.753Z,13.32
2022-08-04T03:49:38.997Z,15.82
2022-08-04T03:52:59.225Z,11.65
2022-08-04T03:59:08.326Z,14.93
2022-08-04T04:02:06.506Z,10.70
2022-08-04T04:04:44.709Z,18.85
2022-08-04T04:07:36.780Z,11.00
2022-08-04T04:10:29.505Z,12.40
2022-08-04T04:13:39.705Z,12.70
2022-08-04T04:16:17.665Z,15.50
2022-08-04T04:19:24.248Z,11.32
2022-08-04T04:22:08.813Z,13.23
2022-08-04T04:24:45.374Z,13.77
2022-08-04T04:27:21.912Z,12.95
2022-08-04T04:30:13.191Z,11.90
2022-08-04T04:32:57.999Z,13.50
2022-08-04T04:35:38.309Z,15.20
2022-08-04T04:38:28.005Z,15.77
2022-08-04T04:41:00.669Z,18.25
2022-08-04T04:43:51.321Z,15.15
2022-08-04T04:47:00.361Z,14.93
2022-08-04T04:49:54.840Z,16.83
2022-08-04T04:52:45.734Z,16.27
2022-08-04T04:55:15.198Z,19.17
2022-08-04T04:57:53.168Z,12.23
2022-08-04T05:00:25.095Z,14.70
2022-08-04T05:03:34.532Z,14.40
2022-08-04T05:06:26.978Z,13.38
2022-08-04T05:09:02.463Z,16.15
2022-08-04T05:14:22.880Z,12.57
2022-08-04T05:14:56.570Z,13.40
2022-08-04T05:17:36.535Z,12.05
2022-08-04T05:20:16.746Z,14.68
2022-08-04T05:22:58.302Z,13.98
2022-08-04T05:25:35.920Z,16.25
2022-08-04T05:28:09.918Z,15.77
2022-08-04T05:30:48.654Z,13.00
2022-08-04T05:33:29.236Z,18.52
2022-08-04T05:36:18.036Z,12.48
2022-08-04T05:38:51.595Z,14.40
2022-08-04T05:41:19.796Z,10.95
2022-08-04T05:43:49.733Z,10.55
2022-08-04T05:46:19.712Z,13.25
2022-08-04T05:48:48.559Z,15.07
2022-08-04T05:51:17.462Z,13.93
2022-08-04T05:53:47.569Z,14.45
2022-08-04T05:56:15.729Z,11.50
2022-08-04T05:58:44.600Z,13.27
2022-08-04T06:01:12.798Z,9.98
2022-08-04T06:03:41.409Z,12.13
2022-08-04T06:06:13.302Z,10.82
2022-08-04T06:08:41.577Z,14.75
2022-08-04T06:11:10.229Z,12.45
2022-08-04T06:13:47.678Z,11.40
2022-08-04T06:16:29.841Z,15.40
2022-08-04T06:20:00.492Z,11.57
2022-08-04T06:21:55.872Z,12.82
2022-08-04T06:24:29.439Z,14.15
2022-08-04T06:27:13.572Z,11.50
2022-08-04T06:29:51.264Z,8.45
2022-08-04T06:32:41.644Z,12.10
2022-08-04T06:38:00.436Z,8.52
2022-08-04T06:40:33.837Z,7.97
2022-08-04T06:43:03.820Z,8.88
2022-08-04T06:45:34.981Z,12.98
2022-08-04T06:48:06.847Z,9.05
2022-08-04T06:51:26.462Z,9.23
2022-08-04T06:53:27.154Z,9.85
2022-08-04T06:55:56.304Z,10.45
2022-08-04T06:58:24.287Z,10.05
2022-08-04T07:00:52.045Z,12.65
2022-08-04T07:03:19.951Z,8.88
2022-08-04T07:05:48.333Z,7.20
2022-08-04T07:08:15.891Z,8.57
2022-08-04T07:10:44.895Z,11.57
2022-08-04T07:13:12.965Z,6.55
2022-08-04T07:15:44.239Z,13.40
2022-08-04T07:18:11.239Z,9.52
2022-08-04T07:20:46.936Z,6.85
2022-08-04T07:23:18.114Z,9.20
2022-08-04T07:25:59.818Z,16.20
2022-08-04T07:28:40.617Z,9.13
2022-08-04T07:31:10.817Z,8.15
2022-08-04T07:34:17.708Z,8.23
2022-08-04T07:36:50.435Z,9.63
2022-08-04T07:39:26.423Z,7.07
2022-08-04T07:41:58.594Z,8.50
2022-08-04T07:44:36.028Z,8.30
2022-08-04T07:47:07.985Z,7.13
2022-08-04T07:49:56.131Z,6.75
2022-08-04T07:52:26.674Z,6.82
2022-08-04T07:54:54.604Z,7.40
2022-08-04T07:57:40.021Z,8.25
2022-08-04T08:00:10.608Z,8.30
2022-08-04T08:02:46.289Z,7.35
2022-08-04T08:05:15.380Z,5.18
2022-08-04T08:07:50.382Z,8.50
2022-08-04T08:10:22.406Z,8.48
2022-08-04T08:12:52.581Z,6.85
2022-08-04T08:15:22.326Z,7.53
2022-08-04T08:17:59.718Z,5.88
2022-08-04T08:20:30.342Z,4.63
2022-08-04T08:22:58.161Z,7.25
2022-08-04T08:25:25.064Z,6.15
2022-08-04T08:27:56.110Z,4.65
2022-08-04T08:30:24.503Z,6.00
2022-08-04T08:33:05.759Z,3.80
2022-08-04T08:36:17.556Z,4.35
2022-08-04T08:39:09.877Z,7.35
2022-08-04T08:42:18.775Z,5.85
2022-08-04T08:45:08.268Z,4.40
2022-08-04T08:48:06.185Z,4.13
2022-08-04T08:51:01.608Z,7.10
2022-08-04T08:53:29.809Z,5.95
2022-08-04T08:56:31.261Z,4.25
2022-08-04T08:59:24.810Z,5.60
2022-08-04T09:02:23.431Z,3.93
2022-08-04T09:05:31.824Z,4.13
2022-08-04T09:08:29.915Z,3.90
2022-08-04T09:11:27.086Z,5.45
2022-08-04T09:14:00.871Z,5.40
2022-08-04T09:16:45.332Z,6.63
2022-08-04T09:19:38.174Z,7.82
2022-08-04T09:22:16.697Z,4.13
2022-08-04T09:25:16.348Z,6.03
2022-08-04T09:28:09.550Z,4.38
2022-08-04T09:30:47.164Z,6.25
2022-08-04T09:33:44.866Z,5.30
2022-08-04T09:36:31.402Z,5.65
2022-08-04T09:39:32.468Z,4.68
2022-08-04T09:42:32.966Z,6.70
2022-08-04T09:45:43.426Z,4.93
2022-08-04T09:48:24.805Z,8.82
2022-08-04T09:50:59.113Z,5.43
2022-08-04T09:53:52.272Z,5.18
2022-08-04T09:56:55.357Z,5.43
2022-08-04T09:59:30.305Z,6.47
2022-08-04T10:02:03.446Z,5.45
2022-08-04T10:04:32.959Z,5.05
2022-08-04T10:07:18.471Z,4.90
2022-08-04T10:09:52.342Z,4.50
2022-08-04T10:12:23.018Z,4.55
2022-08-04T10:14:56.368Z,5.18
2022-08-04T10:17:54.691Z,8.50
2022-08-04T10:20:59.018Z,5.47
2022-08-04T10:24:07.569Z,5.50
2022-08-04T10:26:57.491Z,5.30
2022-08-04T10:29:30.875Z,5.32
2022-08-04T10:32:06.218Z,6.80
2022-08-04T10:34:46.718Z,5.03
2022-08-04T10:37:21.984Z,6.40
2022-08-04T10:40:40.688Z,7.68
2022-08-04T10:43:43.314Z,8.40
2022-08-04T10:46:19.754Z,5.90
2022-08-04T10:49:27.884Z,6.43
2022-08-04T10:52:07.702Z,6.25
2022-08-04T10:54:51.030Z,6.07
2022-08-04T10:57:26.332Z,8.02
2022-08-04T11:00:26.694Z,7.38
2022-08-04T11:03:10.534Z,7.38
2022-08-04T11:05:56.382Z,7.03
2022-08-04T11:08:37.071Z,5.22
2022-08-04T11:12:00.378Z,5.95
2022-08-04T11:14:50.477Z,9.98
2022-08-04T11:17:27.992Z,5.90
2022-08-04T11:23:21.621Z,11.57
2022-08-04T11:26:00.729Z,4.82
2022-08-04T11:28:55.841Z,5.43
2022-08-04T11:31:33.627Z,6.75
2022-08-04T11:34:15.971Z,6.82
2022-08-04T11:36:54.916Z,7.50
2022-08-04T11:39:34.265Z,7.03
2022-08-04T11:42:10.845Z,6.88
2022-08-04T11:45:06.930Z,5.65
2022-08-04T11:47:40.120Z,6.15
2022-08-04T11:50:25.400Z,7.93
2022-08-04T11:52:54.995Z,5.57
2022-08-04T11:55:27.085Z,6.55
2022-08-04T11:57:56.010Z,5.65
2022-08-04T12:00:28.116Z,5.15
2022-08-04T12:03:12.269Z,7.28
2022-08-04T12:06:06.510Z,7.97
2022-08-04T12:08:58.807Z,5.10
2022-08-04T12:11:47.978Z,5.57
2022-08-04T12:15:15.528Z,6.00
2022-08-04T12:18:10.760Z,5.85
2022-08-04T12:20:50.835Z,7.35
2022-08-04T12:23:33.309Z,8.15
2022-08-04T12:26:07.419Z,5.40
2022-08-04T12:29:07.247Z,7.72
2022-08-04T12:32:01.029Z,5.18
2022-08-04T12:34:46.781Z,8.13
2022-08-04T12:38:02.985Z,7.97
2022-08-04T12:40:37.007Z,5.88
2022-08-04T12:43:12.530Z,5.93
2022-08-04T12:45:49.851Z,8.95
2022-08-04T12:48:21.375Z,5.15
2022-08-04T12:51:00.472Z,5.65
2022-08-04T12:53:33.119Z,9.20
2022-08-04T12:56:03.101Z,6.80
2022-08-04T12:58:49.245Z,5.40
2022-08-04T13:02:06.891Z,6.63
2022-08-04T13:04:21.954Z,5.53
2022-08-04T13:07:07.786Z,5.45
2022-08-04T13:09:37.383Z,8.25
2022-08-04T13:12:16.399Z,6.00
2022-08-04T13:14:44.910Z,5.85
2022-08-04T13:17:12.525Z,5.78
2022-08-04T13:19:46.210Z,7.82
2022-08-04T13:22:16.427Z,6.25
2022-08-04T13:25:18.229Z,6.50
2022-08-04T13:27:43.395Z,6.50
2022-08-04T13:30:13.728Z,5.43
2022-08-04T13:32:58.669Z,6.90
2022-08-04T13:35:54.583Z,5.53
2022-08-04T13:38:16.830Z,8.18
2022-08-04T13:40:44.754Z,4.90
2022-08-04T13:44:16.017Z,5.93
2022-08-04T13:46:27.887Z,5.47
2022-08-04T13:51:58.536Z,5.50
2022-08-04T13:54:53.561Z,5.15
2022-08-04T13:57:32.959Z,4.90
2022-08-04T14:00:08.084Z,9.10
2022-08-04T14:02:49.461Z,6.63
2022-08-04T14:05:58.886Z,5.28
2022-08-04T14:08:29.087Z,4.75
2022-08-04T14:10:59.835Z,6.10
2022-08-04T14:13:41.845Z,5.72
2022-08-04T14:16:20.079Z,6.85
2022-08-04T14:18:57.545Z,5.07
2022-08-04T14:21:24.939Z,5.05
2022-08-04T14:27:29.921Z,7.60
2022-08-04T14:29:57.149Z,5.40
2022-08-04T14:32:26.461Z,4.50
2022-08-04T14:34:53.536Z,8.50
2022-08-04T14:37:23.307Z,8.75
2022-08-04T14:40:17.369Z,4.63
2022-08-04T14:42:44.132Z,4.35
2022-08-04T14:45:16.078Z,4.72
2022-08-04T14:47:52.260Z,5.95
2022-08-04T14:50:20.643Z,5.05
2022-08-04T14:52:47.695Z,4.40
2022-08-04T14:55:24.740Z,4.57
2022-08-04T14:58:36.459Z,6.30
2022-08-04T15:01:00.960Z,6.20
2022-08-04T15:03:52.373Z,4.25
2022-08-04T15:06:29.526Z,4.88
2022-08-04T15:09:01.658Z,6.88
2022-08-04T15:11:29.253Z,4.65
2022-08-04T15:14:00.881Z,4.32
2022-08-04T15:16:30.912Z,5.93
2022-08-04T15:19:01.001Z,5.30
2022-08-04T15:21:29.879Z,4.75
2022-08-04T15:23:59.854Z,6.30
2022-08-04T15:26:33.220Z,4.20
2022-08-04T15:29:28.781Z,3.95
2022-08-04T15:34:54.995Z,5.13
2022-08-04T15:37:31.082Z,6.45
2022-08-04T15:40:33.402Z,8.13
2022-08-04T15:43:12.481Z,5.00
2022-08-04T15:46:41.579Z,4.85
2022-08-04T15:48:47.234Z,4.30
2022-08-04T15:51:31.882Z,4.38
2022-08-04T15:54:03.059Z,5.32
2022-08-04T15:56:35.310Z,4.30
2022-08-04T15:59:04.277Z,4.28
2022-08-04T16:01:32.607Z,6.35
2022-08-04T16:04:01.652Z,4.28
2022-08-04T16:06:29.423Z,6.20
2022-08-04T16:09:24.134Z,5.13
2022-08-04T16:11:52.657Z,6.45
2022-08-04T16:14:31.477Z,8.77
2022-08-04T16:17:15.827Z,6.50
2022-08-04T16:19:52.303Z,6.88
2022-08-04T16:22:41.213Z,4.20
2022-08-04T16:25:09.724Z,4.43
2022-08-04T16:27:38.935Z,5.28
2022-08-04T16:30:13.933Z,6.18
2022-08-04T16:32:46.961Z,3.47
2022-08-04T16:35:28.597Z,5.05
2022-08-04T16:38:14.834Z,5.60
2022-08-04T16:40:47.371Z,5.25
2022-08-04T16:43:17.072Z,6.20
2022-08-04T16:46:01.494Z,7.22
2022-08-04T16:48:36.517Z,7.75
2022-08-04T16:51:14.217Z,5.90
2022-08-04T16:54:03.028Z,11.93
2022-08-04T16:56:33.615Z,7.43
2022-08-04T16:59:12.673Z,6.32
2022-08-04T17:01:51.664Z,4.10
2022-08-04T17:04:32.785Z,3.60
2022-08-04T17:07:03.339Z,6.20
2022-08-04T17:09:30.904Z,16.98
2022-08-04T17:12:02.632Z,7.63
2022-08-04T17:14:31.360Z,8.05
2022-08-04T17:17:01.325Z,4.28
2022-08-04T17:19:31.778Z,6.50
2022-08-04T17:22:10.085Z,5.72
2022-08-04T17:24:51.582Z,5.35
2022-08-04T17:30:29.277Z,5.35
2022-08-04T17:32:56.620Z,7.47
2022-08-04T17:35:27.066Z,6.22
2022-08-04T17:38:07.800Z,9.13
2022-08-04T17:41:00.316Z,9.70
2022-08-04T17:44:03.292Z,4.47
2022-08-04T17:46:44.964Z,8.05
2022-08-04T17:49:24.691Z,8.35
2022-08-04T17:52:04.299Z,6.15
2022-08-04T17:54:36.566Z,7.20
2022-08-04T17:57:23.076Z,7.25
2022-08-04T17:59:59.249Z,4.80
2022-08-04T18:02:34.856Z,4.85
2022-08-04T18:05:11.735Z,5.00
2022-08-04T18:08:40.412Z,9.15
2022-08-04T18:11:04.013Z,5.13
2022-08-04T18:13:42.772Z,5.20
2022-08-04T18:16:22.775Z,7.20
2022-08-04T18:19:10.779Z,5.55
2022-08-04T18:21:45.603Z,6.45
2022-08-04T18:24:15.455Z,5.68
2022-08-04T18:26:45.850Z,5.85
2022-08-04T18:29:30.875Z,7.70
2022-08-04T18:31:58.256Z,7.55
2022-08-04T18:34:27.429Z,5.60
2022-08-04T18:37:01.015Z,11.82
2022-08-04T18:40:17.346Z,4.35
2022-08-04T18:42:37.501Z,5.78
2022-08-04T18:45:06.202Z,6.25
2022-08-04T18:47:54.335Z,6.18
2022-08-04T18:51:00.346Z,8.05
2022-08-04T18:53:08.302Z,6.35
2022-08-04T18:55:57.046Z,7.78
2022-08-04T18:58:27.084Z,7.05
2022-08-04T19:00:56.050Z,10.60
2022-08-04T19:03:30.734Z,9.88
2022-08-04T19:06:01.441Z,13.32
2022-08-04T19:08:33.067Z,11.55
2022-08-04T19:11:37.154Z,9.80
2022-08-04T19:13:58.555Z,6.82
2022-08-04T19:16:28.513Z,10.05
2022-08-04T19:18:58.714Z,10.35
2022-08-04T19:22:01.155Z,8.82
2022-08-04T19:24:31.615Z,9.13
2022-08-04T19:27:07.219Z,8.77
2022-08-04T19:29:37.580Z,9.73
2022-08-04T19:32:14.910Z,9.20
2022-08-04T19:34:47.884Z,6.75
2022-08-04T19:37:58.203Z,7.10
2022-08-04T19:40:09.336Z,10.10
2022-08-04T19:42:37.256Z,11.50
2022-08-04T19:45:05.715Z,8.75
2022-08-04T19:48:17.514Z,7.22
2022-08-04T19:50:23.845Z,7.35
2022-08-04T19:52:52.560Z,8.48
2022-08-04T19:55:22.980Z,5.55
2022-08-04T19:58:07.358Z,12.65
2022-08-04T20:00:36.232Z,8.95
2022-08-04T20:03:11.721Z,10.25
2022-08-04T20:05:53.733Z,14.60
2022-08-04T20:08:28.738Z,8.80
2022-08-04T20:10:56.573Z,11.85
2022-08-04T20:13:33.840Z,8.50
2022-08-04T20:16:28.377Z,9.15
2022-08-04T20:18:56.644Z,8.18
2022-08-04T20:21:36.327Z,9.80
2022-08-04T20:24:41.458Z,8.63
2022-08-04T20:26:52.314Z,8.18
2022-08-04T20:29:20.741Z,12.30
2022-08-04T20:34:55.529Z,9.68
2022-08-04T20:37:24.662Z,9.45
2022-08-04T20:40:02.145Z,8.25
2022-08-04T20:42:33.584Z,9.38
2022-08-04T20:45:01.940Z,8.15
2022-08-04T20:47:35.680Z,7.03
2022-08-04T20:50:08.760Z,10.25
2022-08-04T20:52:37.646Z,9.55
2022-08-04T20:55:06.611Z,10.20
2022-08-04T20:57:48.025Z,10.73
2022-08-04T21:00:26.610Z,9.30
2022-08-04T21:03:00.358Z,9.95
2022-08-04T21:05:28.901Z,7.30
2022-08-04T21:07:58.630Z,11.35
2022-08-04T21:10:33.333Z,9.60
2022-08-04T21:13:00.271Z,9.88
2022-08-04T21:15:57.736Z,11.20
2022-08-04T21:18:19.513Z,9.25
2022-08-04T21:20:57.801Z,9.50
2022-08-04T21:23:24.756Z,8.18
2022-08-04T21:26:03.202Z,9.43
2022-08-04T21:28:33.333Z,11.55
2022-08-04T21:31:02.528Z,12.45
2022-08-04T21:33:50.444Z,11.80
2022-08-04T21:36:19.796Z,10.80
2022-08-04T21:38:51.243Z,10.07
2022-08-04T21:41:24.975Z,12.18
2022-08-04T21:43:54.286Z,12.82
2022-08-04T21:46:21.156Z,11.30
2022-08-04T21:48:49.474Z,13.95
2022-08-04T21:52:00.379Z,7.30
2022-08-04T21:54:16.990Z,13.18
2022-08-04T21:56:51.385Z,10.20
2022-08-04T21:59:23.520Z,14.32
2022-08-04T22:01:58.125Z,11.95
2022-08-04T22:04:29.960Z,12.13
2022-08-04T22:07:03.178Z,8.63
2022-08-04T22:09:38.944Z,14.50
2022-08-04T22:12:12.423Z,7.95
2022-08-04T22:14:41.241Z,11.75
2022-08-04T22:17:13.769Z,12.07
2022-08-04T22:19:54.948Z,8.38
2022-08-04T22:22:25.314Z,10.00
2022-08-04T22:24:58.664Z,12.48
2022-08-04T22:27:47.627Z,10.57
2022-08-04T22:30:18.678Z,11.25
2022-08-04T22:32:50.345Z,10.68
2022-08-04T22:35:43.620Z,10.10
2022-08-04T22:38:20.558Z,10.43
2022-08-04T22:40:58.073Z,13.35
2022-08-04T22:43:32.124Z,10.60
2022-08-04T22:46:03.857Z,9.93
2022-08-04T22:48:36.908Z,9.07
2022-08-04T22:51:12.844Z,8.45
2022-08-04T22:53:49.185Z,11.10
2022-08-04T22:56:37.220Z,12.23
2022-08-04T22:59:10.070Z,9.88
2022-08-04T23:01:59.619Z,9.52
2022-08-04T23:04:35.892Z,12.15
2022-08-04T23:07:09.484Z,14.65
2022-08-04T23:09:50.449Z,8.13
2022-08-04T23:12:26.274Z,10.15
2022-08-04T23:14:59.652Z,8.23
2022-08-04T23:20:11.783Z,8.88
2022-08-04T23:22:55.703Z,17.67
2022-08-04T23:25:32.972Z,9.63
2022-08-04T23:28:14.785Z,11.50
2022-08-04T23:30:45.269Z,12.85
2022-08-04T23:33:12.337Z,11.82
2022-08-04T23:35:39.220Z,11.43
2022-08-04T23:38:31.008Z,13.07
2022-08-04T23:40:56.271Z,8.65
2022-08-04T23:43:23.998Z,10.52
2022-08-04T23:46:07.349Z,11.85
2022-08-04T23:48:38.852Z,10.45
2022-08-04T23:51:14.785Z,10.13
2022-08-04T23:54:03.674Z,10.15
2022-08-04T23:56:35.824Z,10.27
2022-08-04T23:59:05.836Z,11.98
